createdAt,value
2018-11-21T00:00:50.213Z,35.0
2018-11-21T00:02:50.098Z,36.5
2018-11-21T00:04:50.254Z,38.2
2018-11-21T00:06:50.217Z,38.2
2018-11-21T00:08:50.085Z,34.6
2018-11-21T00:10:49.941Z,34.6
2018-11-21T00:12:49.740Z,36.5
2018-11-21T00:14:49.560Z,35.8
2018-11-21T00:16:49.613Z,35.4
2018-11-21T00:18:50.481Z,35.2
2018-11-21T00:20:50.300Z,35.2
2018-11-21T00:22:50.145Z,36.2
2018-11-21T00:24:49.885Z,36.1
2018-11-21T00:26:49.994Z,35.4
2018-11-21T00:28:49.852Z,34.7
2018-11-21T00:30:49.764Z,34.7
2018-11-21T00:32:49.544Z,33.6
2018-11-21T00:34:49.705Z,33.2
2018-11-21T00:36:49.773Z,32.8
2018-11-21T00:38:49.691Z,32.8
2018-11-21T00:40:49.575Z,33.4
2018-11-21T00:42:50.481Z,33.2
2018-11-21T00:44:50.382Z,33.2
2018-11-21T00:46:50.340Z,32.1
2018-11-21T00:48:50.234Z,32.1
2018-11-21T00:50:50.085Z,32.4
2018-11-21T00:52:49.919Z,31.7
2018-11-21T00:54:49.789Z,33.4
2018-11-21T00:56:49.893Z,32.0
2018-11-21T00:58:49.727Z,32.0
2018-11-21T01:00:49.644Z,31.4
2018-11-21T01:02:50.505Z,31.5
2018-11-21T01:04:49.692Z,31.5
2018-11-21T01:06:49.753Z,30.4
2018-11-21T01:08:49.658Z,30.5
2018-11-21T01:10:50.484Z,29.1
2018-11-21T01:12:50.285Z,29.1
2018-11-21T01:14:50.187Z,28.8
2018-11-21T01:16:50.196Z,29.2
2018-11-21T01:18:50.087Z,29.2
2018-11-21T01:20:49.940Z,29.2
2018-11-21T01:22:49.777Z,29.0
2018-11-21T01:24:49.674Z,29.2
2018-11-21T01:26:49.680Z,29.2
2018-11-21T01:28:50.467Z,27.6
2018-11-21T01:30:50.317Z,27.9
2018-11-21T01:32:50.100Z,27.3
2018-11-21T01:34:50.274Z,26.5
2018-11-21T01:36:50.299Z,26.5
2018-11-21T01:38:50.078Z,27.3
2018-11-21T01:40:49.917Z,25.9
2018-11-21T01:42:49.786Z,26.0
2018-11-21T01:44:49.654Z,27.0
2018-11-21T01:46:49.638Z,27.0
2018-11-21T01:48:49.668Z,26.9
2018-11-21T01:50:50.430Z,26.7
2018-11-21T01:52:50.345Z,26.7
2018-11-21T01:54:50.158Z,27.3
2018-11-21T01:56:50.181Z,27.3
2018-11-21T01:58:49.934Z,29.0
2018-11-21T02:00:49.820Z,28.5
2018-11-21T02:02:49.763Z,28.2
2018-11-21T02:04:49.824Z,27.7
2018-11-21T02:06:49.898Z,27.7
2018-11-21T02:08:49.862Z,28.8
2018-11-21T02:10:49.672Z,27.3
2018-11-21T02:12:49.623Z,27.5
2018-11-21T02:14:49.695Z,27.5
2018-11-21T02:16:49.866Z,27.2
2018-11-21T02:18:49.820Z,28.0
2018-11-21T02:20:49.866Z,28.0
2018-11-21T02:22:49.789Z,26.4
2018-11-21T02:24:49.711Z,26.4
2018-11-21T02:26:49.809Z,27.8
2018-11-21T02:28:49.685Z,25.8
2018-11-21T02:30:49.659Z,28.4
2018-11-21T02:32:49.517Z,27.3
2018-11-21T02:34:49.812Z,27.3
2018-11-21T02:36:49.919Z,28.2
2018-11-21T02:38:49.735Z,28.1
2018-11-21T02:40:49.537Z,27.2
2018-11-21T02:42:50.425Z,27.2
2018-11-21T02:44:50.253Z,28.3
2018-11-21T02:46:50.367Z,27.9
2018-11-21T02:48:50.203Z,29.6
2018-11-21T02:50:50.025Z,27.8
2018-11-21T02:52:49.819Z,28.2
2018-11-21T02:54:49.593Z,28.2
2018-11-21T02:56:49.635Z,28.1
2018-11-21T02:58:49.610Z,28.1
2018-11-21T03:00:50.491Z,28.1
2018-11-21T03:02:50.382Z,28.1
2018-11-21T03:04:50.425Z,27.4
2018-11-21T03:06:49.562Z,27.3
2018-11-21T03:08:49.771Z,25.8
2018-11-21T03:10:49.649Z,26.1
2018-11-21T03:12:50.481Z,26.1
2018-11-21T03:14:50.399Z,24.1
2018-11-21T03:16:50.443Z,24.1
2018-11-21T03:18:50.335Z,24.7
2018-11-21T03:20:50.130Z,22.3
2018-11-21T03:22:50.011Z,22.3
2018-11-21T03:24:49.857Z,21.8
2018-11-21T03:26:49.993Z,20.7
2018-11-21T03:28:49.807Z,20.7
2018-11-21T03:30:49.658Z,19.2
2018-11-21T03:32:49.671Z,19.2
2018-11-21T03:34:49.777Z,19.1
2018-11-21T03:36:49.777Z,18.1
2018-11-21T03:38:49.686Z,18.9
2018-11-21T03:40:49.561Z,17.7
2018-11-21T03:42:50.429Z,17.7
2018-11-21T03:44:50.273Z,16.2
2018-11-21T03:46:50.268Z,17.7
2018-11-21T03:48:50.052Z,16.5
2018-11-21T03:50:49.826Z,16.5
2018-11-21T03:52:49.688Z,16.1
2018-11-21T03:54:49.540Z,15.3
2018-11-21T03:56:49.762Z,16.1
2018-11-21T03:58:49.758Z,15.2
2018-11-21T04:00:49.747Z,15.2
2018-11-21T04:02:49.821Z,15.0
2018-11-21T04:04:49.944Z,15.3
2018-11-21T04:06:50.112Z,14.4
2018-11-21T04:08:50.022Z,14.4
2018-11-21T04:10:50.013Z,14.4
2018-11-21T04:12:49.997Z,14.7
2018-11-21T04:14:50.021Z,14.7
2018-11-21T04:16:50.239Z,15.2
2018-11-21T04:18:50.207Z,15.2
2018-11-21T04:20:50.176Z,15.0
2018-11-21T04:22:50.173Z,14.5
2018-11-21T04:24:50.223Z,14.5
2018-11-21T04:26:50.349Z,14.5
2018-11-21T04:28:50.328Z,14.4
2018-11-21T04:30:50.285Z,14.4
2018-11-21T04:32:50.297Z,14.5
2018-11-21T04:34:49.726Z,15.0
2018-11-21T04:36:49.887Z,15.2
2018-11-21T04:38:49.910Z,14.9
2018-11-21T04:40:49.856Z,14.9
2018-11-21T04:42:49.868Z,14.7
2018-11-21T04:44:49.747Z,14.7
2018-11-21T04:46:49.968Z,14.5
2018-11-21T04:48:49.941Z,14.5
2018-11-21T04:50:49.940Z,13.9
2018-11-21T04:52:49.980Z,13.9
2018-11-21T04:54:49.914Z,14.3
2018-11-21T04:56:50.088Z,14.3
2018-11-21T04:58:50.027Z,14.6
2018-11-21T05:00:49.997Z,14.0
2018-11-21T05:02:49.974Z,14.5
2018-11-21T05:04:50.329Z,14.5
2018-11-21T05:06:49.530Z,14.4
2018-11-21T05:08:50.514Z,14.4
2018-11-21T05:10:49.549Z,15.4
2018-11-21T05:12:49.617Z,15.8
2018-11-21T05:14:49.544Z,14.9
2018-11-21T05:16:49.662Z,14.3
2018-11-21T05:18:49.692Z,14.3
2018-11-21T05:20:49.725Z,14.7
2018-11-21T05:22:49.722Z,14.7
2018-11-21T05:24:49.785Z,15.2
2018-11-21T05:26:49.621Z,14.8
2018-11-21T05:28:49.600Z,14.4
2018-11-21T05:30:49.596Z,15.3
2018-11-21T05:32:49.646Z,15.1
2018-11-21T05:34:50.022Z,14.6
2018-11-21T05:36:50.238Z,14.6
2018-11-21T05:38:50.287Z,15.1
2018-11-21T05:40:50.335Z,14.9
2018-11-21T05:42:50.274Z,14.8
2018-11-21T05:44:50.362Z,16.0
2018-11-21T05:46:53.845Z,16.0
2018-11-21T05:48:49.783Z,15.4
2018-11-21T05:50:49.803Z,15.5
2018-11-21T05:52:49.787Z,16.3
2018-11-21T05:54:49.739Z,16.3
2018-11-21T05:56:50.054Z,15.3
2018-11-21T05:58:50.045Z,15.0
2018-11-21T06:00:50.011Z,15.2
2018-11-21T06:02:50.024Z,15.5
2018-11-21T06:04:50.249Z,15.5
2018-11-21T06:06:49.561Z,15.9
2018-11-21T06:08:49.606Z,15.8
2018-11-21T06:10:49.537Z,16.2
2018-11-21T06:12:49.563Z,15.4
2018-11-21T06:14:49.645Z,15.4
2018-11-21T06:16:49.862Z,14.8
2018-11-21T06:18:49.875Z,15.0
2018-11-21T06:20:49.869Z,15.6
2018-11-21T06:22:49.877Z,15.6
2018-11-21T06:24:49.823Z,15.6
2018-11-21T06:26:50.033Z,14.8
2018-11-21T06:28:49.968Z,15.1
2018-11-21T06:30:50.029Z,15.1
2018-11-21T06:32:49.984Z,14.7
2018-11-21T06:34:50.292Z,15.4
2018-11-21T06:36:50.155Z,14.7
2018-11-21T06:38:50.081Z,14.6
2018-11-21T06:40:50.077Z,15.5
2018-11-21T06:42:50.051Z,15.0
2018-11-21T06:44:50.033Z,15.0
2018-11-21T06:46:50.216Z,14.7
2018-11-21T06:48:50.203Z,15.2
2018-11-21T06:50:50.153Z,14.7
2018-11-21T06:52:50.150Z,13.8
2018-11-21T06:54:50.101Z,13.8
2018-11-21T06:56:50.312Z,14.2
2018-11-21T06:58:55.342Z,16.0
2018-11-21T07:00:50.273Z,15.1
2018-11-21T07:02:50.319Z,15.4
2018-11-21T07:04:49.525Z,15.4
2018-11-21T07:06:49.749Z,15.0
2018-11-21T07:08:49.697Z,13.6
2018-11-21T07:10:49.575Z,13.9
2018-11-21T07:12:49.536Z,13.9
2018-11-21T07:14:49.533Z,13.4
2018-11-21T07:16:49.666Z,13.9
2018-11-21T07:18:49.679Z,14.0
2018-11-21T07:20:49.653Z,13.8
2018-11-21T07:22:49.683Z,13.8
2018-11-21T07:24:49.684Z,13.0
2018-11-21T07:26:49.950Z,13.6
2018-11-21T07:28:49.921Z,13.6
2018-11-21T07:30:49.860Z,14.1
2018-11-21T07:32:49.840Z,14.1
2018-11-21T07:34:50.060Z,13.8
2018-11-21T07:36:50.106Z,13.8
2018-11-21T07:38:50.066Z,13.8
2018-11-21T07:40:50.098Z,12.6
2018-11-21T07:42:50.074Z,12.6
2018-11-21T07:44:49.987Z,12.9
2018-11-21T07:46:50.171Z,12.4
2018-11-21T07:48:50.101Z,12.3
2018-11-21T07:50:50.108Z,12.6
2018-11-21T07:52:50.135Z,12.6
2018-11-21T07:54:50.045Z,13.1
2018-11-21T07:56:50.248Z,13.5
2018-11-21T07:58:50.193Z,12.7
2018-11-21T08:00:50.186Z,12.7
2018-11-21T08:02:50.222Z,13.0
2018-11-21T08:04:50.468Z,12.6
2018-11-21T08:06:49.704Z,13.1
2018-11-21T08:08:49.806Z,13.0
2018-11-21T08:10:50.222Z,13.0
2018-11-21T08:12:50.205Z,12.8
2018-11-21T08:14:49.902Z,14.2
2018-11-21T08:16:50.057Z,13.0
2018-11-21T08:18:50.073Z,13.0
2018-11-21T08:20:50.000Z,13.0
2018-11-21T08:22:50.009Z,13.5
2018-11-21T08:24:50.067Z,12.8
2018-11-21T08:26:49.733Z,12.1
2018-11-21T08:28:49.816Z,12.7
2018-11-21T08:30:49.805Z,12.7
2018-11-21T08:32:49.790Z,12.0
2018-11-21T08:34:50.008Z,12.0
2018-11-21T08:36:50.204Z,12.8
2018-11-21T08:38:50.119Z,12.3
2018-11-21T08:40:50.093Z,12.3
2018-11-21T08:42:50.172Z,11.9
2018-11-21T08:44:50.202Z,11.9
2018-11-21T08:46:50.292Z,11.5
2018-11-21T08:48:50.361Z,12.2
2018-11-21T08:50:50.346Z,12.2
2018-11-21T08:52:50.363Z,11.8
2018-11-21T08:54:50.364Z,11.8
2018-11-21T08:56:50.485Z,11.7
2018-11-21T08:58:50.486Z,11.7
2018-11-21T09:00:50.434Z,11.5
2018-11-21T09:02:50.429Z,11.5
2018-11-21T09:04:50.099Z,11.4
2018-11-21T09:06:50.210Z,11.7
2018-11-21T09:08:50.152Z,11.7
2018-11-21T09:10:50.061Z,11.7
2018-11-21T09:12:49.962Z,11.0
2018-11-21T09:14:49.903Z,12.1
2018-11-21T09:16:50.013Z,12.1
2018-11-21T09:18:50.055Z,12.1
2018-11-21T09:20:49.970Z,11.6
2018-11-21T09:22:49.922Z,11.1
2018-11-21T09:24:49.944Z,11.0
2018-11-21T09:26:50.149Z,11.0
2018-11-21T09:28:50.087Z,10.4
2018-11-21T09:30:50.060Z,10.8
2018-11-21T09:32:50.088Z,10.5
2018-11-21T09:34:50.350Z,10.6
2018-11-21T09:36:49.548Z,10.6
2018-11-21T09:38:49.905Z,10.2
2018-11-21T09:40:49.860Z,11.4
2018-11-21T09:42:49.836Z,11.0
2018-11-21T09:44:49.813Z,11.0
2018-11-21T09:46:49.955Z,10.3
2018-11-21T09:48:49.967Z,10.3
2018-11-21T09:50:49.903Z,10.9
2018-11-21T09:52:50.632Z,10.3
2018-11-21T09:54:49.647Z,9.9
2018-11-21T09:56:49.727Z,9.9
2018-11-21T09:58:49.668Z,10.7
2018-11-21T10:00:49.679Z,11.0
2018-11-21T10:02:49.645Z,11.2
2018-11-21T10:04:50.264Z,11.2
2018-11-21T10:06:50.335Z,11.0
2018-11-21T10:08:50.283Z,10.8
2018-11-21T10:10:50.233Z,10.7
2018-11-21T10:12:50.167Z,10.9
2018-11-21T10:14:50.100Z,11.7
2018-11-21T10:16:50.237Z,11.7
2018-11-21T10:18:50.255Z,11.0
2018-11-21T10:20:50.380Z,11.0
2018-11-21T10:22:50.404Z,11.0
2018-11-21T10:24:50.371Z,9.9
2018-11-21T10:26:49.566Z,9.9
2018-11-21T10:28:49.660Z,10.9
2018-11-21T10:30:49.663Z,10.9
2018-11-21T10:32:49.685Z,11.0
2018-11-21T10:34:50.078Z,11.0
2018-11-21T10:36:50.225Z,10.7
2018-11-21T10:38:50.250Z,10.8
2018-11-21T10:40:50.293Z,10.8
2018-11-21T10:42:50.407Z,11.4
2018-11-21T10:44:50.386Z,11.4
2018-11-21T10:46:49.622Z,10.9
2018-11-21T10:48:49.694Z,10.7
2018-11-21T10:50:49.689Z,10.8
2018-11-21T10:52:49.699Z,10.8
2018-11-21T10:54:49.698Z,11.4
2018-11-21T10:56:49.959Z,11.0
2018-11-21T10:58:49.990Z,11.0
2018-11-21T11:00:49.951Z,11.6
2018-11-21T11:02:49.868Z,11.6
2018-11-21T11:04:49.523Z,12.2
2018-11-21T11:06:49.696Z,11.5
2018-11-21T11:08:49.540Z,11.3
2018-11-21T11:10:50.297Z,11.3
2018-11-21T11:12:50.366Z,11.1
2018-11-21T11:14:50.287Z,11.1
2018-11-21T11:16:50.423Z,11.4
2018-11-21T11:18:50.354Z,11.3
2018-11-21T11:20:50.249Z,11.3
2018-11-21T11:22:50.312Z,11.4
2018-11-21T11:24:49.978Z,11.4
2018-11-21T11:26:50.374Z,12.1
2018-11-21T11:28:50.176Z,11.6
2018-11-21T11:30:49.828Z,11.5
2018-11-21T11:32:50.532Z,11.5
2018-11-21T11:34:49.640Z,11.8
2018-11-21T11:36:50.279Z,11.1
2018-11-21T11:38:50.191Z,11.6
2018-11-21T11:40:50.101Z,11.8
2018-11-21T11:42:49.651Z,11.8
2018-11-21T11:44:50.296Z,12.0
2018-11-21T11:46:50.406Z,12.0
2018-11-21T11:48:50.307Z,12.0
2018-11-21T11:50:50.280Z,11.7
2018-11-21T11:52:50.189Z,11.7
2018-11-21T11:54:50.155Z,11.6
2018-11-21T11:56:49.549Z,11.7
2018-11-21T11:58:49.581Z,11.8
2018-11-21T12:00:49.588Z,11.7
2018-11-21T12:02:50.285Z,11.7
2018-11-21T12:04:49.713Z,12.0
2018-11-21T12:06:49.862Z,11.2
2018-11-21T12:08:49.659Z,11.4
2018-11-21T12:10:49.071Z,10.9
2018-11-21T12:12:49.943Z,10.9
2018-11-21T12:14:49.920Z,11.2
2018-11-21T12:16:49.716Z,11.4
2018-11-21T12:18:50.179Z,11.5
2018-11-21T12:20:50.196Z,11.5
2018-11-21T12:22:50.195Z,11.6
2018-11-21T12:24:50.147Z,11.6
2018-11-21T12:26:50.132Z,12.2
2018-11-21T12:28:50.118Z,12.2
2018-11-21T12:30:50.074Z,11.2
2018-11-21T12:32:50.083Z,11.2
2018-11-21T12:34:49.609Z,12.0
2018-11-21T12:36:49.746Z,12.0
2018-11-21T12:38:50.356Z,11.4
2018-11-21T12:40:50.226Z,11.4
2018-11-21T12:42:50.137Z,11.8
2018-11-21T12:44:50.092Z,10.6
2018-11-21T12:46:49.878Z,10.6
2018-11-21T12:48:49.653Z,10.6
2018-11-21T12:50:49.552Z,10.9
2018-11-21T12:52:50.174Z,11.3
2018-11-21T12:54:50.159Z,10.8
2018-11-21T12:56:50.311Z,11.9
2018-11-21T12:58:49.897Z,11.9
2018-11-21T13:00:50.388Z,11.6
2018-11-21T13:02:49.814Z,9.9
2018-11-21T13:04:50.101Z,10.1
2018-11-21T13:06:50.258Z,10.1
2018-11-21T13:08:50.270Z,10.5
2018-11-21T13:10:50.181Z,10.5
2018-11-21T13:12:50.180Z,10.6
2018-11-21T13:14:49.906Z,10.5
2018-11-21T13:16:50.123Z,10.5
2018-11-21T13:18:50.032Z,10.1
2018-11-21T13:20:49.997Z,10.3
2018-11-21T13:22:49.526Z,10.1
2018-11-21T13:24:50.483Z,10.1
2018-11-21T13:26:49.587Z,10.1
2018-11-21T13:28:49.549Z,9.8
2018-11-21T13:30:50.486Z,10.1
2018-11-21T13:32:49.512Z,10.7
2018-11-21T13:34:49.977Z,9.9
2018-11-21T13:36:50.375Z,9.9
2018-11-21T13:38:49.739Z,10.6
2018-11-21T13:40:50.018Z,9.7
2018-11-21T13:42:50.031Z,9.8
2018-11-21T13:44:49.547Z,9.8
2018-11-21T13:46:49.870Z,9.9
2018-11-21T13:48:55.682Z,10.0
2018-11-21T13:50:49.740Z,9.4
2018-11-21T13:52:50.331Z,10.2
2018-11-21T13:54:50.331Z,10.2
2018-11-21T13:56:50.497Z,10.2
2018-11-21T13:58:50.495Z,10.1
2018-11-21T14:00:50.536Z,10.1
2018-11-21T14:02:49.667Z,10.7
2018-11-21T14:04:50.133Z,10.9
2018-11-21T14:06:50.262Z,10.9
2018-11-21T14:08:50.198Z,11.4
2018-11-21T14:10:50.174Z,10.6
2018-11-21T14:12:50.145Z,10.7
2018-11-21T14:14:50.145Z,10.7
2018-11-21T14:16:50.263Z,11.0
2018-11-21T14:18:50.265Z,10.9
2018-11-21T14:20:50.181Z,10.8
2018-11-21T14:22:50.160Z,11.0
2018-11-21T14:24:50.133Z,11.0
2018-11-21T14:26:50.326Z,11.0
2018-11-21T14:28:50.291Z,10.6
2018-11-21T14:30:50.352Z,11.2
2018-11-21T14:32:50.480Z,10.5
2018-11-21T14:34:49.753Z,10.9
2018-11-21T14:36:49.813Z,10.9
2018-11-21T14:38:49.867Z,11.7
2018-11-21T14:40:50.056Z,11.5
2018-11-21T14:42:50.014Z,11.5
2018-11-21T14:44:49.915Z,11.5
2018-11-21T14:46:50.073Z,10.8
2018-11-21T14:48:50.057Z,10.5
2018-11-21T14:50:50.089Z,11.1
2018-11-21T14:52:50.026Z,11.1
2018-11-21T14:54:50.005Z,11.5
2018-11-21T14:56:50.227Z,11.9
2018-11-21T14:58:50.248Z,11.6
2018-11-21T15:00:50.223Z,11.8
2018-11-21T15:02:50.242Z,12.0
2018-11-21T15:04:50.471Z,12.0
2018-11-21T15:06:49.765Z,12.6
2018-11-21T15:08:49.751Z,11.8
2018-11-21T15:10:49.741Z,11.8
2018-11-21T15:12:49.904Z,11.4
2018-11-21T15:14:49.857Z,12.5
2018-11-21T15:16:50.063Z,12.6
2018-11-21T15:18:50.017Z,12.3
2018-11-21T15:20:49.977Z,12.8
2018-11-21T15:22:50.061Z,12.8
2018-11-21T15:24:50.111Z,12.9
2018-11-21T15:26:50.263Z,12.9
2018-11-21T15:28:50.278Z,12.9
2018-11-21T15:30:50.223Z,12.5
2018-11-21T15:32:50.331Z,12.5
2018-11-21T15:34:49.680Z,13.1
2018-11-21T15:36:50.009Z,12.4
2018-11-21T15:38:49.959Z,12.4
2018-11-21T15:40:50.437Z,12.1
2018-11-21T15:42:50.474Z,12.6
2018-11-21T15:44:50.400Z,12.6
2018-11-21T15:46:49.635Z,12.9
2018-11-21T15:48:49.565Z,12.4
2018-11-21T15:50:49.519Z,12.4
2018-11-21T15:52:53.315Z,13.1
2018-11-21T15:54:50.284Z,13.3
2018-11-21T15:56:50.439Z,12.6
2018-11-21T15:58:50.421Z,12.6
2018-11-21T16:00:50.353Z,12.2
2018-11-21T16:02:50.407Z,12.2
2018-11-21T16:04:49.657Z,13.0
2018-11-21T16:06:49.940Z,13.0
2018-11-21T16:08:49.865Z,13.2
2018-11-21T16:10:49.840Z,13.0
2018-11-21T16:12:49.870Z,13.4
2018-11-21T16:14:49.830Z,13.5
2018-11-21T16:16:49.939Z,13.9
2018-11-21T16:18:49.939Z,13.3
2018-11-21T16:20:49.897Z,13.3
2018-11-21T16:22:49.899Z,13.9
2018-11-21T16:24:49.921Z,13.3
2018-11-21T16:26:50.144Z,13.8
2018-11-21T16:28:50.121Z,13.8
2018-11-21T16:30:50.139Z,13.7
2018-11-21T16:32:50.150Z,13.6
2018-11-21T16:34:49.535Z,14.5
2018-11-21T16:36:49.783Z,14.4
2018-11-21T16:38:49.782Z,14.3
2018-11-21T16:40:49.800Z,14.3
2018-11-21T16:42:49.763Z,14.0
2018-11-21T16:44:49.794Z,14.7
2018-11-21T16:46:50.255Z,14.2
2018-11-21T16:48:50.221Z,14.2
2018-11-21T16:50:50.186Z,14.4
2018-11-21T16:52:50.260Z,15.0
2018-11-21T16:54:50.127Z,14.4
2018-11-21T16:56:50.306Z,15.5
2018-11-21T16:58:50.269Z,15.5
2018-11-21T17:00:50.199Z,14.9
2018-11-21T17:02:50.138Z,14.1
2018-11-21T17:04:50.451Z,13.9
2018-11-21T17:06:49.559Z,15.1
2018-11-21T17:08:49.552Z,15.1
2018-11-21T17:10:49.588Z,15.0
2018-11-21T17:12:49.733Z,15.1
2018-11-21T17:14:50.873Z,15.2
2018-11-21T17:16:50.203Z,15.0
2018-11-21T17:18:50.166Z,15.0
2018-11-21T17:20:50.154Z,15.5
2018-11-21T17:22:50.096Z,15.5
2018-11-21T17:24:50.084Z,16.5
2018-11-21T17:26:50.221Z,16.5
2018-11-21T17:28:50.791Z,16.2
2018-11-21T17:30:49.788Z,18.2
2018-11-21T17:32:49.718Z,16.3
2018-11-21T17:34:50.092Z,15.8
2018-11-21T17:36:50.364Z,15.8
2018-11-21T17:38:50.277Z,16.4
2018-11-21T17:40:50.257Z,15.9
2018-11-21T17:42:50.169Z,15.6
2018-11-21T17:44:50.142Z,15.6
2018-11-21T17:46:50.304Z,15.6
2018-11-21T17:48:50.245Z,15.6
2018-11-21T17:50:50.250Z,14.8
2018-11-21T17:52:50.223Z,14.8
2018-11-21T17:54:50.186Z,14.7
2018-11-21T17:56:50.352Z,14.7
2018-11-21T17:58:50.239Z,14.7
2018-11-21T18:00:50.142Z,15.2
2018-11-21T18:02:50.139Z,15.7
2018-11-21T18:04:49.549Z,15.7
2018-11-21T18:06:49.675Z,14.6
2018-11-21T18:08:49.688Z,15.0
2018-11-21T18:10:49.723Z,14.0
2018-11-21T18:12:49.832Z,14.3
2018-11-21T18:14:49.754Z,14.9
2018-11-21T18:16:49.854Z,14.9
2018-11-21T18:18:49.792Z,14.7
2018-11-21T18:20:49.878Z,14.2
2018-11-21T18:22:49.847Z,15.1
2018-11-21T18:24:49.873Z,14.3
2018-11-21T18:26:49.993Z,14.3
2018-11-21T18:28:49.969Z,14.3
2018-11-21T18:30:49.956Z,15.2
2018-11-21T18:32:49.964Z,15.2
2018-11-21T18:34:50.278Z,15.3
2018-11-21T18:36:49.576Z,15.3
2018-11-21T18:38:49.578Z,17.0
2018-11-21T18:40:49.566Z,17.5
2018-11-21T18:42:49.714Z,17.0
2018-11-21T18:44:49.696Z,17.0
2018-11-21T18:46:49.924Z,16.0
2018-11-21T18:48:49.908Z,16.9
2018-11-21T18:50:49.932Z,20.5
2018-11-21T18:52:49.912Z,17.8
2018-11-21T18:54:49.925Z,17.8
2018-11-21T18:56:50.201Z,18.3
2018-11-21T18:58:50.221Z,21.8
2018-11-21T19:00:50.181Z,19.7
2018-11-21T19:02:50.186Z,19.7
2018-11-21T19:04:50.322Z,19.7
2018-11-21T19:06:50.418Z,18.9
2018-11-21T19:08:50.391Z,18.9
2018-11-21T19:10:50.405Z,19.1
2018-11-21T19:12:50.415Z,19.1
2018-11-21T19:14:50.405Z,19.7
2018-11-21T19:16:49.583Z,18.4
2018-11-21T19:18:49.559Z,18.3
2018-11-21T19:20:49.652Z,20.3
2018-11-21T19:22:49.710Z,20.3
2018-11-21T19:24:49.680Z,20.1
2018-11-21T19:26:49.783Z,19.6
2018-11-21T19:28:49.741Z,20.8
2018-11-21T19:30:49.714Z,19.9
2018-11-21T19:32:49.678Z,19.9
2018-11-21T19:34:50.092Z,19.6
2018-11-21T19:36:50.183Z,20.6
2018-11-21T19:38:50.088Z,23.7
2018-11-21T19:40:50.104Z,23.7
2018-11-21T19:42:50.072Z,22.7
2018-11-21T19:44:50.117Z,20.0
2018-11-21T19:46:50.331Z,20.6
2018-11-21T19:48:50.297Z,20.6
2018-11-21T19:54:50.168Z,20.1
2018-11-21T19:56:50.305Z,23.4
2018-11-21T19:58:50.306Z,25.3
2018-11-21T20:00:50.254Z,22.4
2018-11-21T20:02:50.230Z,22.4
2018-11-21T20:04:50.419Z,20.9
2018-11-21T20:06:49.643Z,20.8
2018-11-21T20:08:49.703Z,20.2
2018-11-21T20:10:49.625Z,20.2
2018-11-21T20:12:49.660Z,20.1
2018-11-21T20:14:49.652Z,21.9
2018-11-21T20:16:49.725Z,20.9
2018-11-21T20:18:49.723Z,20.9
2018-11-21T20:20:49.751Z,20.8
2018-11-21T20:22:49.708Z,20.1
2018-11-21T20:24:50.716Z,21.2
2018-11-21T20:26:50.028Z,21.0
2018-11-21T20:28:50.089Z,21.4
2018-11-21T20:30:50.065Z,21.4
2018-11-21T20:32:50.010Z,20.9
2018-11-21T20:34:50.256Z,20.9
2018-11-21T20:36:50.439Z,22.5
2018-11-21T20:38:49.612Z,22.6
2018-11-21T20:40:49.689Z,22.6
2018-11-21T20:42:49.788Z,25.6
2018-11-21T20:44:49.772Z,26.2
2018-11-21T20:46:49.906Z,23.3
2018-11-21T20:48:49.818Z,23.3
2018-11-21T20:50:49.803Z,21.2
2018-11-21T20:52:49.938Z,22.1
2018-11-21T20:54:49.895Z,21.5
2018-11-21T20:56:50.133Z,20.2
2018-11-21T20:58:50.147Z,20.2
2018-11-21T21:00:50.164Z,21.4
2018-11-21T21:02:50.159Z,23.5
2018-11-21T21:04:50.514Z,22.7
2018-11-21T21:06:49.783Z,22.5
2018-11-21T21:08:49.732Z,22.5
2018-11-21T21:10:49.967Z,22.6
2018-11-21T21:12:49.940Z,20.9
2018-11-21T21:14:49.948Z,21.4
2018-11-21T21:16:50.074Z,21.4
2018-11-21T21:18:50.098Z,22.0
2018-11-21T21:20:50.081Z,21.6
2018-11-21T21:22:50.219Z,20.7
2018-11-21T21:24:50.185Z,20.9
2018-11-21T21:26:50.331Z,20.9
2018-11-21T21:28:50.320Z,21.9
2018-11-21T21:30:50.420Z,21.3
2018-11-21T21:32:50.443Z,21.4
2018-11-21T21:34:49.892Z,21.8
2018-11-21T21:36:50.184Z,21.8
2018-11-21T21:38:50.177Z,21.3
2018-11-21T21:40:50.130Z,21.9
2018-11-21T21:42:50.104Z,22.2
2018-11-21T21:44:50.098Z,22.2
2018-11-21T21:46:50.325Z,22.2
2018-11-21T21:48:50.317Z,21.0
2018-11-21T21:50:50.341Z,21.2
2018-11-21T21:52:50.297Z,22.9
2018-11-21T21:54:50.345Z,22.9
2018-11-21T21:56:49.578Z,22.6
2018-11-21T21:58:49.595Z,22.6
2018-11-21T22:00:49.670Z,22.7
2018-11-21T22:02:49.682Z,22.4
2018-11-21T22:04:50.005Z,22.4
2018-11-21T22:06:50.223Z,23.3
2018-11-21T22:08:50.255Z,23.3
2018-11-21T22:10:50.237Z,23.7
2018-11-21T22:12:50.164Z,23.1
2018-11-21T22:14:50.084Z,23.1
2018-11-21T22:16:50.260Z,23.3
2018-11-21T22:18:50.147Z,23.8
2018-11-21T22:20:50.147Z,22.6
2018-11-21T22:22:50.103Z,22.6
2018-11-21T22:24:50.112Z,22.8
2018-11-21T22:26:50.245Z,23.6
2018-11-21T22:28:50.166Z,23.7
2018-11-21T22:30:50.164Z,22.4
2018-11-21T22:32:50.104Z,26.2
2018-11-21T22:34:50.391Z,26.2
2018-11-21T22:36:49.597Z,23.6
2018-11-21T22:38:49.591Z,22.3
2018-11-21T22:40:49.612Z,22.2
2018-11-21T22:42:49.552Z,23.3
2018-11-21T22:44:49.638Z,23.3
2018-11-21T22:46:49.936Z,23.4
2018-11-21T22:48:50.035Z,23.4
2018-11-21T22:50:50.001Z,23.2
2018-11-21T22:52:49.987Z,23.2
2018-11-21T22:54:50.036Z,23.0
2018-11-21T22:56:50.184Z,23.1
2018-11-21T22:58:50.160Z,23.4
2018-11-21T23:00:50.142Z,22.3
2018-11-21T23:02:50.244Z,22.3
2018-11-21T23:04:49.588Z,21.7
2018-11-21T23:06:49.806Z,21.7
2018-11-21T23:08:49.764Z,21.8
2018-11-21T23:10:49.720Z,21.6
2018-11-21T23:12:49.824Z,21.6
2018-11-21T23:14:49.791Z,21.0
2018-11-21T23:16:50.001Z,20.8
2018-11-21T23:18:49.973Z,20.6
2018-11-21T23:20:49.967Z,20.8
2018-11-21T23:22:49.913Z,21.1
2018-11-21T23:24:49.859Z,21.1
2018-11-21T23:26:50.038Z,20.5
2018-11-21T23:28:50.038Z,21.8
2018-11-21T23:30:49.995Z,22.6
2018-11-21T23:32:49.926Z,22.6
2018-11-21T23:34:50.270Z,21.8
2018-11-21T23:36:50.251Z,21.9
2018-11-21T23:38:50.201Z,21.9
2018-11-21T23:40:50.235Z,21.9
2018-11-21T23:42:50.205Z,21.1
2018-11-21T23:44:50.208Z,21.7
2018-11-21T23:46:50.413Z,21.5
2018-11-21T23:48:50.304Z,20.7
2018-11-21T23:50:50.335Z,20.7
2018-11-21T23:52:50.240Z,21.0
2018-11-21T23:54:50.142Z,21.0
2018-11-21T23:57:15.497Z,21.3
2018-11-21T23:58:50.277Z,21.6
